createdAt,value
2019-02-07T00:00:06.266Z,-4.22
2019-02-07T00:01:06.158Z,-4.17
2019-02-07T00:02:06.054Z,-4.10
2019-02-07T00:03:05.961Z,-4.07
2019-02-07T00:04:05.838Z,-4.10
2019-02-07T00:05:05.734Z,-4.07
2019-02-07T00:06:05.631Z,-4.10
2019-02-07T00:07:05.521Z,-4.10
2019-02-07T00:08:05.430Z,-4.12
2019-02-07T00:09:05.307Z,-4.20
2019-02-07T00:10:05.202Z,-4.22
2019-02-07T00:11:05.095Z,-4.20
2019-02-07T00:12:04.988Z,-4.22
2019-02-07T00:13:04.899Z,-4.34
2019-02-07T00:14:04.774Z,-4.33
2019-02-07T00:15:04.667Z,-4.10
2019-02-07T00:16:04.560Z,-4.26
2019-02-07T00:17:04.455Z,-4.30
2019-02-07T00:18:04.367Z,-4.27
2019-02-07T00:19:04.241Z,-4.19
2019-02-07T00:20:04.140Z,-4.36
2019-02-07T00:21:04.028Z,-4.37
2019-02-07T00:22:03.922Z,-4.33
2019-02-07T00:23:03.832Z,-4.36
2019-02-07T00:24:03.714Z,-4.34
2019-02-07T00:25:03.608Z,-4.33
2019-02-07T00:26:03.501Z,-4.31
2019-02-07T00:27:03.387Z,-4.36
2019-02-07T00:28:03.300Z,-4.34
2019-02-07T00:29:03.178Z,-4.41
2019-02-07T00:30:03.071Z,-4.37
2019-02-07T00:31:02.960Z,-4.44
2019-02-07T00:32:02.857Z,-4.37
2019-02-07T00:33:02.763Z,-4.37
2019-02-07T00:34:02.641Z,-4.27
2019-02-07T00:35:02.539Z,-4.31
2019-02-07T00:36:02.428Z,-4.31
2019-02-07T00:37:02.321Z,-4.28
2019-02-07T00:38:02.234Z,-4.36
2019-02-07T00:39:02.108Z,-4.30
2019-02-07T00:40:01.999Z,-4.26
2019-02-07T00:41:01.895Z,-4.27
2019-02-07T00:42:01.885Z,-4.31
2019-02-07T00:43:01.700Z,-4.27
2019-02-07T00:44:01.573Z,-4.31
2019-02-07T00:45:01.468Z,-4.31
2019-02-07T00:46:01.365Z,-4.31
2019-02-07T00:47:01.263Z,-4.26
2019-02-07T00:48:01.162Z,-4.30
2019-02-07T00:49:01.041Z,-4.31
2019-02-07T00:50:00.933Z,-4.34
2019-02-07T00:51:00.830Z,-4.31
2019-02-07T00:52:00.720Z,-4.40
2019-02-07T00:53:00.630Z,-4.37
2019-02-07T00:54:00.506Z,-4.44
2019-02-07T00:55:00.501Z,-4.38
2019-02-07T00:56:00.295Z,-4.37
2019-02-07T00:57:00.187Z,-4.51
2019-02-07T00:58:00.080Z,-4.48
2019-02-07T00:58:59.991Z,-4.49
2019-02-07T00:59:59.866Z,-4.51
2019-02-07T01:00:59.767Z,-4.63
2019-02-07T01:01:59.767Z,-4.49
2019-02-07T01:02:59.548Z,-4.49
2019-02-07T01:03:59.456Z,-4.52
2019-02-07T01:04:59.330Z,-4.52
2019-02-07T01:05:59.225Z,-4.49
2019-02-07T01:06:59.117Z,-4.38
2019-02-07T01:07:59.015Z,-4.36
2019-02-07T01:08:59.031Z,-4.36
2019-02-07T01:09:58.798Z,-4.36
2019-02-07T01:10:58.694Z,-4.33
2019-02-07T01:11:58.588Z,-4.38
2019-02-07T01:12:58.480Z,-4.26
2019-02-07T01:13:58.388Z,-4.37
2019-02-07T01:15:02.174Z,-4.40
2019-02-07T01:15:58.260Z,-4.38
2019-02-07T01:16:58.049Z,-4.44
2019-02-07T01:17:57.945Z,-4.40
2019-02-07T01:18:57.854Z,-4.46
2019-02-07T01:19:57.730Z,-4.44
2019-02-07T01:20:57.624Z,-4.56
2019-02-07T01:21:57.534Z,-4.58
2019-02-07T01:22:57.516Z,-4.63
2019-02-07T01:23:57.323Z,-4.65
2019-02-07T01:24:57.197Z,-4.74
2019-02-07T01:25:57.090Z,-4.87
2019-02-07T01:26:56.984Z,-4.77
2019-02-07T01:27:56.921Z,-4.79
2019-02-07T01:28:56.791Z,-4.79
2019-02-07T01:29:56.771Z,-4.83
2019-02-07T01:30:56.556Z,-4.83
2019-02-07T01:31:56.448Z,-4.84
2019-02-07T01:32:56.344Z,-4.77
2019-02-07T01:33:56.255Z,-4.76
2019-02-07T01:34:56.131Z,-4.79
2019-02-07T01:35:56.033Z,-4.70
2019-02-07T01:36:56.017Z,-4.74
2019-02-07T01:37:55.819Z,-4.74
2019-02-07T01:38:55.722Z,-4.74
2019-02-07T01:39:55.598Z,-4.77
2019-02-07T01:40:55.489Z,-4.70
2019-02-07T01:41:55.383Z,-4.74
2019-02-07T01:42:55.872Z,-4.59
2019-02-07T01:43:55.289Z,-4.65
2019-02-07T01:44:55.137Z,-4.55
2019-02-07T01:45:54.955Z,-4.51
2019-02-07T01:46:54.852Z,-4.51
2019-02-07T01:47:54.742Z,-4.46
2019-02-07T01:48:56.831Z,-4.45
2019-02-07T01:49:54.531Z,-4.48
2019-02-07T01:50:54.420Z,-4.51
2019-02-07T01:51:54.314Z,-4.49
2019-02-07T01:52:54.207Z,-4.54
2019-02-07T01:53:54.120Z,-4.54
2019-02-07T01:54:53.998Z,-4.55
2019-02-07T01:55:53.886Z,-4.51
2019-02-07T01:56:53.780Z,-4.51
2019-02-07T01:57:53.673Z,-4.59
2019-02-07T01:58:54.005Z,-4.56
2019-02-07T01:59:53.458Z,-4.54
2019-02-07T02:00:53.352Z,-4.55
2019-02-07T02:01:53.245Z,-4.44
2019-02-07T02:02:53.142Z,-4.54
2019-02-07T02:03:53.033Z,-4.40
2019-02-07T02:04:52.943Z,-4.51
2019-02-07T02:05:52.931Z,-4.51
2019-02-07T02:06:52.713Z,-4.51
2019-02-07T02:07:52.604Z,-4.55
2019-02-07T02:08:52.502Z,-4.54
2019-02-07T02:09:52.407Z,-4.44
2019-02-07T02:10:52.283Z,-4.36
2019-02-07T02:11:52.178Z,-4.51
2019-02-07T02:12:52.170Z,-4.38
2019-02-07T02:13:51.965Z,-4.49
2019-02-07T02:14:51.873Z,-4.54
2019-02-07T02:15:51.747Z,-4.45
2019-02-07T02:16:51.642Z,-4.31
2019-02-07T02:17:51.537Z,-4.36
2019-02-07T02:18:51.533Z,-4.48
2019-02-07T02:19:51.338Z,-4.52
2019-02-07T02:20:51.214Z,-4.52
2019-02-07T02:21:51.107Z,-4.56
2019-02-07T02:22:51.002Z,-4.59
2019-02-07T02:23:50.898Z,-4.59
2019-02-07T02:24:50.800Z,-4.59
2019-02-07T02:25:50.679Z,-4.70
2019-02-07T02:26:50.575Z,-4.70
2019-02-07T02:27:50.464Z,-4.73
2019-02-07T02:28:50.357Z,-4.73
2019-02-07T02:29:50.270Z,-4.67
2019-02-07T02:30:50.148Z,-4.67
2019-02-07T02:31:50.050Z,-4.58
2019-02-07T02:32:49.936Z,-4.62
2019-02-07T02:33:49.826Z,-4.62
2019-02-07T02:34:49.732Z,-4.62
2019-02-07T02:35:49.609Z,-4.72
2019-02-07T02:36:49.501Z,-4.73
2019-02-07T02:37:49.394Z,-4.76
2019-02-07T02:38:49.290Z,-4.72
2019-02-07T02:39:49.202Z,-4.72
2019-02-07T02:40:49.074Z,-4.70
2019-02-07T02:41:48.971Z,-4.73
2019-02-07T02:42:48.859Z,-4.70
2019-02-07T02:43:48.753Z,-4.74
2019-02-07T02:44:48.663Z,-4.73
2019-02-07T02:45:48.541Z,-4.70
2019-02-07T02:46:48.465Z,-4.77
2019-02-07T02:47:48.323Z,-4.72
2019-02-07T02:48:48.220Z,-4.69
2019-02-07T02:49:48.127Z,-4.66
2019-02-07T02:50:48.004Z,-4.73
2019-02-07T02:51:47.919Z,-4.66
2019-02-07T02:52:47.790Z,-4.67
2019-02-07T02:53:47.686Z,-4.67
2019-02-07T02:54:47.594Z,-4.72
2019-02-07T02:55:47.474Z,-4.67
2019-02-07T02:56:47.365Z,-4.70
2019-02-07T02:57:47.263Z,-4.79
2019-02-07T02:58:47.153Z,-4.74
2019-02-07T02:59:47.060Z,-4.79
2019-02-07T03:00:46.935Z,-4.84
2019-02-07T03:01:46.827Z,-4.90
2019-02-07T03:02:46.722Z,-4.88
2019-02-07T03:03:46.612Z,-4.99
2019-02-07T03:04:46.509Z,-5.02
2019-02-07T03:05:46.413Z,-4.97
2019-02-07T03:06:46.295Z,-4.91
2019-02-07T03:07:46.186Z,-4.99
2019-02-07T03:08:46.080Z,-4.95
2019-02-07T03:09:45.974Z,-5.01
2019-02-07T03:10:45.881Z,-4.93
2019-02-07T03:11:45.757Z,-4.91
2019-02-07T03:12:45.651Z,-4.95
2019-02-07T03:13:45.544Z,-4.93
2019-02-07T03:14:45.441Z,-4.84
2019-02-07T03:15:49.700Z,-4.90
2019-02-07T03:16:45.224Z,-4.90
2019-02-07T03:17:45.115Z,-4.99
2019-02-07T03:18:45.010Z,-5.06
2019-02-07T03:19:44.905Z,-5.06
2019-02-07T03:20:44.813Z,-5.09
2019-02-07T03:21:44.689Z,-5.06
2019-02-07T03:22:44.579Z,-5.03
2019-02-07T03:23:44.473Z,-5.03
2019-02-07T03:24:44.372Z,-4.94
2019-02-07T03:25:44.279Z,-5.08
2019-02-07T03:26:44.155Z,-5.03
2019-02-07T03:27:44.045Z,-5.03
2019-02-07T03:28:43.941Z,-4.99
2019-02-07T03:29:43.834Z,-4.87
2019-02-07T03:30:43.746Z,-4.97
2019-02-07T03:31:43.622Z,-4.95
2019-02-07T03:32:43.513Z,-4.99
2019-02-07T03:33:43.409Z,-4.97
2019-02-07T03:34:43.299Z,-4.91
2019-02-07T03:35:43.307Z,-5.01
2019-02-07T03:36:43.085Z,-4.97
2019-02-07T03:37:42.981Z,-4.97
2019-02-07T03:38:42.870Z,-4.99
2019-02-07T03:39:42.763Z,-4.91
2019-02-07T03:40:42.674Z,-4.97
2019-02-07T03:41:42.551Z,-4.91
2019-02-07T03:42:42.444Z,-4.99
2019-02-07T03:43:42.337Z,-4.94
2019-02-07T03:44:42.227Z,-4.94
2019-02-07T03:45:42.137Z,-5.02
2019-02-07T03:46:42.017Z,-5.05
2019-02-07T03:47:41.908Z,-5.09
2019-02-07T03:48:41.803Z,-5.05
2019-02-07T03:49:41.692Z,-5.06
2019-02-07T03:50:41.610Z,-5.12
2019-02-07T03:51:41.483Z,-5.16
2019-02-07T03:52:41.374Z,-5.13
2019-02-07T03:53:41.264Z,-5.13
2019-02-07T03:54:41.160Z,-5.17
2019-02-07T03:55:41.067Z,-5.17
2019-02-07T03:56:41.049Z,-5.17
2019-02-07T03:57:40.837Z,-5.13
2019-02-07T03:58:40.734Z,-5.20
2019-02-07T03:59:40.625Z,-5.17
2019-02-07T04:00:40.534Z,-5.24
2019-02-07T04:01:40.408Z,-5.33
2019-02-07T04:02:40.785Z,-5.31
2019-02-07T04:03:40.299Z,-5.31
2019-02-07T04:04:40.089Z,-5.38
2019-02-07T04:05:39.997Z,-5.28
2019-02-07T04:06:39.873Z,-5.27
2019-02-07T04:07:39.768Z,-5.25
2019-02-07T04:08:39.658Z,-5.31
2019-02-07T04:09:39.556Z,-5.33
2019-02-07T04:10:39.567Z,-5.42
2019-02-07T04:11:39.337Z,-5.39
2019-02-07T04:12:39.230Z,-5.39
2019-02-07T04:13:39.133Z,-5.42
2019-02-07T04:14:39.015Z,-5.39
2019-02-07T04:15:38.909Z,-5.35
2019-02-07T04:16:38.816Z,-5.35
2019-02-07T04:17:38.797Z,-5.35
2019-02-07T04:18:38.592Z,-5.41
2019-02-07T04:19:38.478Z,-5.46
2019-02-07T04:20:38.374Z,-5.45
2019-02-07T04:21:38.282Z,-5.42
2019-02-07T04:22:38.194Z,-5.52
2019-02-07T04:23:38.052Z,-5.45
2019-02-07T04:24:38.063Z,-5.49
2019-02-07T04:25:37.864Z,-5.51
2019-02-07T04:26:37.746Z,-5.60
2019-02-07T04:27:37.621Z,-5.49
2019-02-07T04:28:37.514Z,-5.57
2019-02-07T04:29:37.404Z,-5.57
2019-02-07T04:30:37.300Z,-5.62
2019-02-07T04:31:37.318Z,-5.69
2019-02-07T04:32:37.085Z,-5.67
2019-02-07T04:33:36.979Z,-5.66
2019-02-07T04:34:36.875Z,-5.59
2019-02-07T04:35:36.762Z,-5.62
2019-02-07T04:36:36.674Z,-5.67
2019-02-07T04:37:36.557Z,-5.60
2019-02-07T04:38:36.539Z,-5.55
2019-02-07T04:39:36.332Z,-5.62
2019-02-07T04:40:36.227Z,-5.63
2019-02-07T04:41:36.134Z,-5.63
2019-02-07T04:42:36.017Z,-5.66
2019-02-07T04:43:35.900Z,-5.66
2019-02-07T04:44:35.796Z,-5.69
2019-02-07T04:45:35.876Z,-5.69
2019-02-07T04:46:35.600Z,-5.67
2019-02-07T04:47:35.470Z,-5.66
2019-02-07T04:48:35.364Z,-5.64
2019-02-07T04:49:35.254Z,-5.66
2019-02-07T04:50:35.152Z,-5.69
2019-02-07T04:51:35.062Z,-5.69
2019-02-07T04:52:35.041Z,-5.70
2019-02-07T04:53:34.825Z,-5.75
2019-02-07T04:54:34.721Z,-5.69
2019-02-07T04:55:34.611Z,-5.73
2019-02-07T04:56:34.518Z,-5.77
2019-02-07T04:57:34.395Z,-5.75
2019-02-07T04:58:34.289Z,-5.84
2019-02-07T04:59:34.281Z,-5.85
2019-02-07T05:00:34.071Z,-5.80
2019-02-07T05:01:33.981Z,-5.81
2019-02-07T05:02:33.857Z,-5.78
2019-02-07T05:03:33.754Z,-5.77
2019-02-07T05:04:33.641Z,-5.69
2019-02-07T05:05:33.534Z,-5.70
2019-02-07T05:06:33.443Z,-5.75
2019-02-07T05:07:33.318Z,-5.67
2019-02-07T05:08:33.212Z,-5.69
2019-02-07T05:09:33.104Z,-5.84
2019-02-07T05:10:32.998Z,-5.78
2019-02-07T05:11:33.005Z,-5.81
2019-02-07T05:12:32.808Z,-5.66
2019-02-07T05:13:32.673Z,-5.71
2019-02-07T05:14:32.563Z,-5.78
2019-02-07T05:15:32.458Z,-5.77
2019-02-07T05:16:39.840Z,-5.70
2019-02-07T05:17:32.242Z,-5.69
2019-02-07T05:18:32.134Z,-5.73
2019-02-07T05:19:32.031Z,-5.70
2019-02-07T05:20:31.917Z,-5.64
2019-02-07T05:21:31.827Z,-5.73
2019-02-07T05:22:31.708Z,-5.77
2019-02-07T05:23:31.595Z,-5.81
2019-02-07T05:24:31.487Z,-5.78
2019-02-07T05:25:31.379Z,-5.84
2019-02-07T05:26:31.291Z,-5.81
2019-02-07T05:27:31.167Z,-5.82
2019-02-07T05:28:31.055Z,-5.88
2019-02-07T05:29:30.950Z,-5.96
2019-02-07T05:30:30.845Z,-5.88
2019-02-07T05:31:30.749Z,-5.78
2019-02-07T05:32:30.626Z,-5.69
2019-02-07T05:33:30.519Z,-5.63
2019-02-07T05:34:30.410Z,-5.78
2019-02-07T05:35:30.301Z,-5.75
2019-02-07T05:36:30.213Z,-5.82
2019-02-07T05:37:30.086Z,-5.81
2019-02-07T05:38:29.977Z,-5.91
2019-02-07T05:39:29.871Z,-5.95
2019-02-07T05:40:29.763Z,-6.03
2019-02-07T05:41:29.678Z,-6.02
2019-02-07T05:42:29.547Z,-6.16
2019-02-07T05:43:29.440Z,-6.03
2019-02-07T05:44:29.334Z,-6.05
2019-02-07T05:45:29.224Z,-5.98
2019-02-07T05:46:29.134Z,-5.98
2019-02-07T05:47:29.013Z,-6.00
2019-02-07T05:48:28.901Z,-6.00
2019-02-07T05:49:28.797Z,-5.95
2019-02-07T05:50:28.769Z,-5.87
2019-02-07T05:51:28.594Z,-5.82
2019-02-07T05:52:28.468Z,-5.87
2019-02-07T05:53:28.371Z,-5.87
2019-02-07T05:54:28.256Z,-6.03
2019-02-07T05:55:28.147Z,-6.03
2019-02-07T05:56:28.040Z,-6.03
2019-02-07T05:57:27.948Z,-6.02
2019-02-07T05:58:27.821Z,-6.09
2019-02-07T05:59:27.713Z,-5.99
2019-02-07T06:00:27.606Z,-5.87
2019-02-07T06:01:27.499Z,-5.92
2019-02-07T06:02:27.408Z,-6.02
2019-02-07T06:03:27.284Z,-5.87
2019-02-07T06:04:27.174Z,-5.84
2019-02-07T06:05:27.067Z,-5.75
2019-02-07T06:06:26.961Z,-5.81
2019-02-07T06:07:26.868Z,-5.81
2019-02-07T06:08:26.742Z,-5.85
2019-02-07T06:09:26.634Z,-5.75
2019-02-07T06:10:26.526Z,-5.81
2019-02-07T06:11:26.423Z,-5.85
2019-02-07T06:12:26.329Z,-5.85
2019-02-07T06:13:26.205Z,-5.98
2019-02-07T06:14:26.094Z,-5.85
2019-02-07T06:15:26.001Z,-5.91
2019-02-07T06:16:25.882Z,-6.03
2019-02-07T06:17:25.792Z,-6.00
2019-02-07T06:18:25.668Z,-6.03
2019-02-07T06:19:25.557Z,-6.00
2019-02-07T06:20:25.449Z,-6.03
2019-02-07T06:21:25.345Z,-6.00
2019-02-07T06:22:25.358Z,-5.95
2019-02-07T06:23:25.125Z,-5.99
2019-02-07T06:24:25.022Z,-6.14
2019-02-07T06:25:24.913Z,-6.10
2019-02-07T06:26:24.804Z,-6.10
2019-02-07T06:27:24.714Z,-6.10
2019-02-07T06:28:24.586Z,-6.10
2019-02-07T06:29:24.579Z,-6.23
2019-02-07T06:30:24.370Z,-6.14
2019-02-07T06:31:24.263Z,-6.20
2019-02-07T06:32:24.173Z,-6.21
2019-02-07T06:33:24.049Z,-6.20
2019-02-07T06:34:29.197Z,-6.20
2019-02-07T06:35:23.831Z,-6.20
2019-02-07T06:36:23.829Z,-6.21
2019-02-07T06:37:23.632Z,-6.24
2019-02-07T06:38:23.511Z,-6.32
2019-02-07T06:39:23.401Z,-6.21
2019-02-07T06:40:23.293Z,-6.21
2019-02-07T06:41:23.185Z,-6.26
2019-02-07T06:42:23.098Z,-6.24
2019-02-07T06:43:23.075Z,-6.24
2019-02-07T06:44:22.870Z,-6.35
2019-02-07T06:45:22.755Z,-6.29
2019-02-07T06:46:22.650Z,-6.19
2019-02-07T06:47:22.556Z,-6.26
2019-02-07T06:48:22.432Z,-6.19
2019-02-07T06:49:22.322Z,-6.21
2019-02-07T06:50:22.336Z,-6.27
2019-02-07T06:51:22.108Z,-6.16
2019-02-07T06:52:22.018Z,-6.16
2019-02-07T06:53:21.890Z,-6.21
2019-02-07T06:54:21.786Z,-6.08
2019-02-07T06:55:21.675Z,-6.13
2019-02-07T06:56:21.569Z,-6.23
2019-02-07T06:57:21.477Z,-6.08
2019-02-07T06:58:21.353Z,-6.10
2019-02-07T06:59:21.245Z,-6.09
2019-02-07T07:00:21.136Z,-6.14
2019-02-07T07:01:21.030Z,-6.06
2019-02-07T07:02:20.938Z,-6.14
2019-02-07T07:03:20.815Z,-6.13
2019-02-07T07:04:20.705Z,-6.09
2019-02-07T07:05:20.602Z,-6.08
2019-02-07T07:06:20.494Z,-6.10
2019-02-07T07:07:20.399Z,-6.14
2019-02-07T07:08:20.276Z,-6.05
2019-02-07T07:09:20.169Z,-6.06
2019-02-07T07:10:20.060Z,-6.09
2019-02-07T07:11:19.953Z,-6.10
2019-02-07T07:12:20.278Z,-5.96
2019-02-07T07:13:19.740Z,-5.99
2019-02-07T07:14:19.631Z,-6.03
2019-02-07T07:15:19.520Z,-6.00
2019-02-07T07:16:19.413Z,-6.03
2019-02-07T07:17:25.349Z,-5.98
2019-02-07T07:18:19.207Z,-5.96
2019-02-07T07:19:19.214Z,-6.00
2019-02-07T07:20:18.982Z,-6.05
2019-02-07T07:21:18.875Z,-6.02
2019-02-07T07:22:18.784Z,-6.03
2019-02-07T07:23:18.657Z,-6.03
2019-02-07T07:24:18.555Z,-6.03
2019-02-07T07:25:18.445Z,-5.95
2019-02-07T07:26:18.449Z,-5.92
2019-02-07T07:27:18.242Z,-5.91
2019-02-07T07:28:18.120Z,-5.87
2019-02-07T07:29:18.012Z,-5.84
2019-02-07T07:30:17.905Z,-5.85
2019-02-07T07:31:17.794Z,-5.88
2019-02-07T07:32:17.704Z,-5.85
2019-02-07T07:33:17.804Z,-5.84
2019-02-07T07:34:17.477Z,-5.80
2019-02-07T07:35:17.367Z,-5.90
2019-02-07T07:36:17.257Z,-5.87
2019-02-07T07:37:17.169Z,-5.92
2019-02-07T07:38:17.045Z,-5.96
2019-02-07T07:39:16.940Z,-5.91
2019-02-07T07:40:16.940Z,-6.05
2019-02-07T07:41:16.723Z,-6.00
2019-02-07T07:42:16.616Z,-6.02
2019-02-07T07:43:16.523Z,-5.95
2019-02-07T07:44:16.405Z,-5.95
2019-02-07T07:45:16.294Z,-5.96
2019-02-07T07:46:16.185Z,-5.90
2019-02-07T07:47:16.182Z,-5.88
2019-02-07T07:48:15.986Z,-5.91
2019-02-07T07:49:15.863Z,-5.96
2019-02-07T07:50:15.757Z,-5.95
2019-02-07T07:51:15.646Z,-5.91
2019-02-07T07:52:15.541Z,-5.85
2019-02-07T07:53:15.570Z,-5.88
2019-02-07T07:54:15.327Z,-5.73
2019-02-07T07:55:15.218Z,-5.78
2019-02-07T07:56:15.112Z,-5.77
2019-02-07T07:57:15.007Z,-5.75
2019-02-07T07:58:14.912Z,-5.73
2019-02-07T07:59:14.789Z,-5.70
2019-02-07T08:00:14.686Z,-5.78
2019-02-07T08:01:14.573Z,-5.67
2019-02-07T08:02:14.486Z,-5.70
2019-02-07T08:03:14.382Z,-5.75
2019-02-07T08:04:14.256Z,-5.64
2019-02-07T08:05:14.148Z,-5.64
2019-02-07T08:06:14.041Z,-5.60
2019-02-07T08:07:13.934Z,-5.64
2019-02-07T08:08:13.844Z,-5.57
2019-02-07T08:09:13.832Z,-5.57
2019-02-07T08:10:13.613Z,-5.63
2019-02-07T08:11:13.505Z,-5.66
2019-02-07T08:12:13.400Z,-5.66
2019-02-07T08:13:13.311Z,-5.57
2019-02-07T08:14:13.188Z,-5.63
2019-02-07T08:15:13.082Z,-5.67
2019-02-07T08:16:12.972Z,-5.59
2019-02-07T08:17:12.866Z,-5.63
2019-02-07T08:18:12.777Z,-5.62
2019-02-07T08:19:12.655Z,-5.69
2019-02-07T08:20:12.546Z,-5.60
2019-02-07T08:21:12.440Z,-5.53
2019-02-07T08:22:12.334Z,-5.60
2019-02-07T08:23:12.245Z,-5.49
2019-02-07T08:24:12.119Z,-5.43
2019-02-07T08:25:12.013Z,-5.45
2019-02-07T08:26:11.905Z,-5.52
2019-02-07T08:27:11.798Z,-5.48
2019-02-07T08:28:11.709Z,-5.63
2019-02-07T08:29:11.589Z,-5.62
2019-02-07T08:30:11.487Z,-5.55
2019-02-07T08:31:11.373Z,-5.60
2019-02-07T08:32:11.269Z,-5.71
2019-02-07T08:33:11.176Z,-5.66
2019-02-07T08:34:11.054Z,-5.63
2019-02-07T08:35:10.950Z,-5.66
2019-02-07T08:36:10.840Z,-5.78
2019-02-07T08:37:10.733Z,-5.66
2019-02-07T08:38:10.646Z,-5.66
2019-02-07T08:39:10.520Z,-5.57
2019-02-07T08:40:10.414Z,-5.62
2019-02-07T08:41:10.306Z,-5.67
2019-02-07T08:42:10.205Z,-5.63
2019-02-07T08:43:10.109Z,-5.60
2019-02-07T08:44:13.821Z,-5.51
2019-02-07T08:45:09.882Z,-5.49
2019-02-07T08:46:09.775Z,-5.55
2019-02-07T08:47:09.668Z,-5.52
2019-02-07T08:48:09.579Z,-5.60
2019-02-07T08:49:09.455Z,-5.64
2019-02-07T08:50:09.348Z,-5.51
2019-02-07T08:51:09.243Z,-5.48
2019-02-07T08:52:09.137Z,-5.52
2019-02-07T08:53:09.043Z,-5.48
2019-02-07T08:54:08.923Z,-5.45
2019-02-07T08:55:08.813Z,-5.52
2019-02-07T08:56:08.710Z,-5.57
2019-02-07T08:57:08.603Z,-5.39
2019-02-07T08:58:08.512Z,-5.67
2019-02-07T08:59:08.389Z,-5.64
2019-02-07T09:00:08.282Z,-5.55
2019-02-07T09:01:08.176Z,-5.57
2019-02-07T09:02:08.070Z,-5.59
2019-02-07T09:03:07.984Z,-5.52
2019-02-07T09:04:07.855Z,-5.46
2019-02-07T09:05:07.754Z,-5.46
2019-02-07T09:06:07.643Z,-5.55
2019-02-07T09:07:07.538Z,-5.64
2019-02-07T09:08:07.449Z,-5.75
2019-02-07T09:09:07.325Z,-5.73
2019-02-07T09:10:07.318Z,-5.62
2019-02-07T09:11:07.110Z,-5.67
2019-02-07T09:12:07.005Z,-5.59
2019-02-07T09:13:06.915Z,-5.67
2019-02-07T09:14:06.794Z,-5.62
2019-02-07T09:15:06.686Z,-5.60
2019-02-07T09:16:06.580Z,-5.63
2019-02-07T09:17:06.571Z,-5.60
2019-02-07T09:18:10.365Z,-5.73
2019-02-07T09:19:06.263Z,-5.67
2019-02-07T09:20:06.163Z,-5.70
2019-02-07T09:21:06.068Z,-5.59
2019-02-07T09:22:05.939Z,-5.59
2019-02-07T09:23:05.851Z,-5.49
2019-02-07T09:24:05.833Z,-5.51
2019-02-07T09:25:05.620Z,-5.41
2019-02-07T09:26:05.515Z,-5.28
2019-02-07T09:27:05.409Z,-5.20
2019-02-07T09:28:05.304Z,-5.38
2019-02-07T09:29:05.212Z,-5.41
2019-02-07T09:30:05.110Z,-5.49
2019-02-07T09:31:05.084Z,-5.48
2019-02-07T09:32:04.879Z,-5.51
2019-02-07T09:33:04.772Z,-5.45
2019-02-07T09:34:04.685Z,-5.60
2019-02-07T09:35:04.556Z,-5.62
2019-02-07T09:36:05.628Z,-5.60
2019-02-07T09:37:04.345Z,-5.64
2019-02-07T09:38:04.351Z,-5.64
2019-02-07T09:39:04.151Z,-5.53
2019-02-07T09:40:04.026Z,-5.52
2019-02-07T09:41:03.924Z,-5.46
2019-02-07T09:42:03.814Z,-5.41
2019-02-07T09:43:03.711Z,-5.38
2019-02-07T09:44:03.623Z,-5.42
2019-02-07T09:45:03.601Z,-5.48
2019-02-07T09:46:03.391Z,-5.70
2019-02-07T09:47:03.286Z,-5.67
2019-02-07T09:48:03.178Z,-5.53
2019-02-07T09:49:03.087Z,-5.51
2019-02-07T09:50:02.968Z,-5.38
2019-02-07T09:51:02.857Z,-5.42
2019-02-07T09:52:02.857Z,-5.38
2019-02-07T09:53:02.647Z,-5.35
2019-02-07T09:54:02.563Z,-5.53
2019-02-07T09:55:02.432Z,-5.48
2019-02-07T09:56:02.341Z,-5.55
2019-02-07T09:57:02.247Z,-5.46
2019-02-07T09:58:02.118Z,-5.46
2019-02-07T09:59:03.416Z,-5.38
2019-02-07T10:00:01.903Z,-5.38
2019-02-07T10:01:01.796Z,-5.39
2019-02-07T10:02:01.690Z,-5.41
2019-02-07T10:03:01.585Z,-5.28
2019-02-07T10:04:01.494Z,-5.24
2019-02-07T10:05:01.372Z,-5.24
2019-02-07T10:06:01.366Z,-5.12
2019-02-07T10:07:01.162Z,-5.11
2019-02-07T10:08:01.054Z,-4.97
2019-02-07T10:09:01.061Z,-5.08
2019-02-07T10:10:00.847Z,-5.16
2019-02-07T10:11:00.735Z,-5.08
2019-02-07T10:12:00.630Z,-5.12
2019-02-07T10:13:00.626Z,-5.11
2019-02-07T10:14:00.421Z,-5.11
2019-02-07T10:15:00.331Z,-5.16
2019-02-07T10:16:00.214Z,-5.24
2019-02-07T10:17:00.102Z,-5.33
2019-02-07T10:17:59.994Z,-5.20
2019-02-07T10:18:59.894Z,-5.09
2019-02-07T10:19:59.801Z,-5.12
2019-02-07T10:20:59.679Z,-5.23
2019-02-07T10:21:59.569Z,-5.34
2019-02-07T10:22:59.464Z,-5.35
2019-02-07T10:23:59.362Z,-5.41
2019-02-07T10:24:59.273Z,-5.45
2019-02-07T10:25:59.153Z,-5.38
2019-02-07T10:26:59.145Z,-5.38
2019-02-07T10:27:58.937Z,-5.48
2019-02-07T10:28:58.829Z,-5.45
2019-02-07T10:29:58.742Z,-5.42
2019-02-07T10:30:58.621Z,-5.38
2019-02-07T10:31:58.511Z,-5.48
2019-02-07T10:32:58.406Z,-5.55
2019-02-07T10:33:58.301Z,-5.49
2019-02-07T10:34:58.212Z,-5.51
2019-02-07T10:35:58.088Z,-5.49
2019-02-07T10:36:57.984Z,-5.41
2019-02-07T10:37:57.877Z,-5.34
2019-02-07T10:38:57.770Z,-5.30
2019-02-07T10:39:57.681Z,-5.39
2019-02-07T10:40:57.570Z,-5.43
2019-02-07T10:41:57.453Z,-5.33
2019-02-07T10:42:57.369Z,-5.38
2019-02-07T10:43:57.241Z,-5.34
2019-02-07T10:44:57.149Z,-5.38
2019-02-07T10:45:57.031Z,-5.30
2019-02-07T10:46:56.922Z,-5.24
2019-02-07T10:47:56.816Z,-5.25
2019-02-07T10:48:56.714Z,-5.25
2019-02-07T10:49:59.303Z,-5.16
2019-02-07T10:50:56.499Z,-5.20
2019-02-07T10:51:56.389Z,-5.17
2019-02-07T10:52:56.286Z,-5.17
2019-02-07T10:53:56.179Z,-5.21
2019-02-07T10:54:56.094Z,-5.27
2019-02-07T10:55:55.967Z,-5.21
2019-02-07T10:56:55.860Z,-5.27
2019-02-07T10:57:55.768Z,-5.17
2019-02-07T10:58:55.648Z,-5.25
2019-02-07T10:59:55.560Z,-5.16
2019-02-07T11:00:55.438Z,-5.25
2019-02-07T11:01:55.332Z,-5.17
2019-02-07T11:02:55.225Z,-5.13
2019-02-07T11:03:55.117Z,-5.05
2019-02-07T11:04:55.030Z,-5.06
2019-02-07T11:05:54.916Z,-5.11
2019-02-07T11:06:54.800Z,-5.12
2019-02-07T11:07:54.694Z,-5.08
2019-02-07T11:08:54.589Z,-5.09
2019-02-07T11:09:54.484Z,-5.09
2019-02-07T11:10:54.393Z,-5.12
2019-02-07T11:11:54.270Z,-5.12
2019-02-07T11:12:54.164Z,-5.03
2019-02-07T11:13:54.058Z,-5.02
2019-02-07T11:14:53.969Z,-5.06
2019-02-07T11:15:53.848Z,-5.05
2019-02-07T11:16:53.741Z,-5.02
2019-02-07T11:17:53.634Z,-5.03
2019-02-07T11:18:55.636Z,-5.06
2019-02-07T11:19:53.425Z,-5.06
2019-02-07T11:20:53.335Z,-5.01
2019-02-07T11:21:53.213Z,-5.06
2019-02-07T11:22:53.104Z,-5.06
2019-02-07T11:23:53.000Z,-4.93
2019-02-07T11:24:52.896Z,-4.88
2019-02-07T11:25:52.805Z,-4.94
2019-02-07T11:26:52.681Z,-4.91
2019-02-07T11:27:52.596Z,-4.85
2019-02-07T11:28:52.467Z,-4.93
2019-02-07T11:29:52.365Z,-4.90
2019-02-07T11:30:52.277Z,-5.01
2019-02-07T11:31:52.153Z,-4.88
2019-02-07T11:32:52.048Z,-4.88
2019-02-07T11:33:51.942Z,-5.08
2019-02-07T11:34:51.836Z,-4.94
2019-02-07T11:35:51.748Z,-4.94
2019-02-07T11:36:54.120Z,-4.88
2019-02-07T11:37:51.516Z,-4.90
2019-02-07T11:38:51.412Z,-4.85
2019-02-07T11:39:51.318Z,-4.79
2019-02-07T11:40:51.219Z,-4.79
2019-02-07T11:41:51.095Z,-4.73
2019-02-07T11:42:50.989Z,-4.70
2019-02-07T11:43:50.883Z,-4.74
2019-02-07T11:44:50.796Z,-4.65
2019-02-07T11:45:50.692Z,-4.59
2019-02-07T11:46:50.565Z,-4.62
2019-02-07T11:47:50.457Z,-4.65
2019-02-07T11:48:50.357Z,-4.52
2019-02-07T11:49:50.250Z,-4.52
2019-02-07T11:50:50.163Z,-4.63
2019-02-07T11:51:50.041Z,-4.66
2019-02-07T11:52:49.933Z,-4.73
2019-02-07T11:53:49.832Z,-4.74
2019-02-07T11:54:49.725Z,-4.73
2019-02-07T11:55:49.633Z,-4.77
2019-02-07T11:56:49.616Z,-4.81
2019-02-07T11:57:49.404Z,-4.85
2019-02-07T11:58:49.298Z,-4.87
2019-02-07T11:59:49.193Z,-4.85
2019-02-07T12:00:49.958Z,-4.77
2019-02-07T12:01:48.982Z,-4.84
2019-02-07T12:02:48.875Z,-4.70
2019-02-07T12:03:48.772Z,-4.77
2019-02-07T12:04:48.676Z,-4.73
2019-02-07T12:05:48.577Z,-4.72
2019-02-07T12:06:48.457Z,-4.70
2019-02-07T12:07:48.349Z,-4.66
2019-02-07T12:08:48.243Z,-4.67
2019-02-07T12:09:48.141Z,-4.59
2019-02-07T12:10:48.047Z,-4.67
2019-02-07T12:11:48.629Z,-4.67
2019-02-07T12:12:47.822Z,-4.62
2019-02-07T12:13:47.714Z,-4.65
2019-02-07T12:14:47.607Z,-4.67
2019-02-07T12:15:47.523Z,-4.76
2019-02-07T12:16:47.396Z,-4.63
2019-02-07T12:17:47.292Z,-4.59
2019-02-07T12:18:47.183Z,-4.62
2019-02-07T12:19:47.078Z,-4.63
2019-02-07T12:20:46.991Z,-4.52
2019-02-07T12:21:46.867Z,-4.46
2019-02-07T12:22:46.762Z,-4.51
2019-02-07T12:23:46.654Z,-4.48
2019-02-07T12:24:46.551Z,-4.41
2019-02-07T12:25:46.460Z,-4.40
2019-02-07T12:26:46.336Z,-4.36
2019-02-07T12:27:46.233Z,-4.44
2019-02-07T12:28:46.126Z,-4.31
2019-02-07T12:29:46.025Z,-4.34
2019-02-07T12:30:45.931Z,-4.38
2019-02-07T12:31:45.809Z,-4.31
2019-02-07T12:32:45.803Z,-4.36
2019-02-07T12:33:45.597Z,-4.34
2019-02-07T12:34:45.493Z,-4.26
2019-02-07T12:35:45.403Z,-4.23
2019-02-07T12:36:45.281Z,-4.31
2019-02-07T12:37:45.175Z,-4.30
2019-02-07T12:38:45.068Z,-4.30
2019-02-07T12:39:45.088Z,-4.30
2019-02-07T12:40:44.873Z,-4.31
2019-02-07T12:41:44.753Z,-4.22
2019-02-07T12:42:44.646Z,-4.28
2019-02-07T12:43:44.542Z,-4.27
2019-02-07T12:44:44.435Z,-4.19
2019-02-07T12:45:44.346Z,-4.20
2019-02-07T12:46:44.326Z,-4.16
2019-02-07T12:47:44.118Z,-4.19
2019-02-07T12:48:44.044Z,-4.22
2019-02-07T12:49:43.908Z,-4.17
2019-02-07T12:50:43.818Z,-4.19